Wetterdaten: Woche 10.08.09 - 16.08.09 (KW33)
Datum Zeit Temperatur Luftfeuchte Luftdruck Niederschlag Wind Richtung Sonnenschein Solar Taupunkt Windchill Windben
10.08.2009 00:00 19.4 C 90 % 1014.0 hPa 0.0 l/m 0.7 km/h (0 Bft) O-SO 0.00 h 0 W/m 17.7 C 19.4 C 1.4 km/h (1 Bft)
10.08.2009 01:00 19.2 C 91 % 1014.3 hPa 0.0 l/m 1.2 km/h (1 Bft) O-SO 0.00 h 0 W/m 17.7 C 19.2 C 2.3 km/h (1 Bft)
10.08.2009 02:00 19.2 C 92 % 1014.4 hPa 2.2 l/m 0.9 km/h (0 Bft) O 0.00 h 0 W/m 17.9 C 19.2 C 2.6 km/h (1 Bft)
10.08.2009 03:00 18.9 C 93 % 1014.3 hPa 0.2 l/m 0.0 km/h (0 Bft) N 0.00 h 0 W/m 17.8 C 18.9 C 0.0 km/h (0 Bft)
10.08.2009 04:00 18.7 C 94 % 1014.4 hPa 0.4 l/m 0.0 km/h (0 Bft) N 0.00 h 0 W/m 17.7 C 18.7 C 0.0 km/h (0 Bft)
10.08.2009 05:00 18.6 C 96 % 1014.2 hPa 0.0 l/m 0.0 km/h (0 Bft) O 0.00 h 0 W/m 17.9 C 18.6 C 0.5 km/h (0 Bft)
10.08.2009 06:00 18.3 C 96 % 1014.3 hPa 0.0 l/m 0.3 km/h (0 Bft) O 0.00 h 10 W/m 17.7 C 18.3 C 0.9 km/h (0 Bft)
10.08.2009 07:00 18.2 C 97 % 1014.7 hPa 0.0 l/m 0.1 km/h (0 Bft) O 0.00 h 42 W/m 17.7 C 18.2 C 1.0 km/h (0 Bft)
10.08.2009 08:00 18.7 C 97 % 1015.1 hPa 0.0 l/m 0.3 km/h (0 Bft) S 0.00 h 102 W/m 18.2 C 18.7 C 1.2 km/h (1 Bft)
10.08.2009 09:00 19.7 C 97 % 1015.2 hPa 0.0 l/m 0.1 km/h (0 Bft) W-SW 0.00 h 196 W/m 19.2 C 19.7 C 1.1 km/h (1 Bft)
10.08.2009 10:00 20.7 C 94 % 1015.7 hPa 0.0 l/m 0.5 km/h (0 Bft) W-SW 0.00 h 141 W/m 19.7 C 20.7 C 2.2 km/h (1 Bft)
10.08.2009 11:00 21.4 C 88 % 1015.8 hPa 0.0 l/m 0.9 km/h (0 Bft) W 0.20 h 338 W/m 19.3 C 21.4 C 3.1 km/h (1 Bft)
10.08.2009 12:00 21.5 C 85 % 1015.6 hPa 2.6 l/m 0.7 km/h (0 Bft) S 0.00 h 163 W/m 18.8 C 21.5 C 2.0 km/h (1 Bft)
10.08.2009 13:00 21.0 C 87 % 1015.4 hPa 0.4 l/m 2.9 km/h (1 Bft) S-SO 0.05 h 218 W/m 18.6 C 21.0 C 5.4 km/h (1 Bft)
10.08.2009 14:00 22.4 C 84 % 1015.2 hPa 0.0 l/m 2.0 km/h (1 Bft) S-SO 0.60 h 537 W/m 19.6 C 22.4 C 4.7 km/h (1 Bft)
10.08.2009 15:00 23.4 C 80 % 1014.6 hPa 2.8 l/m 3.7 km/h (1 Bft) W 0.27 h 260 W/m 19.6 C 23.4 C 7.1 km/h (2 Bft)
10.08.2009 16:00 19.8 C 85 % 1016.2 hPa 2.6 l/m 8.5 km/h (2 Bft) W-NW 0.00 h 11 W/m 17.2 C 19.8 C 13.7 km/h (3 Bft)
10.08.2009 17:00 18.0 C 92 % 1016.1 hPa 0.6 l/m 4.2 km/h (1 Bft) W-NW 0.00 h 54 W/m 16.7 C 18.0 C 7.6 km/h (2 Bft)
10.08.2009 18:00 18.5 C 96 % 1016.4 hPa 0.2 l/m 2.0 km/h (1 Bft) W 0.00 h 132 W/m 17.7 C 18.5 C 4.9 km/h (1 Bft)
10.08.2009 19:00 18.9 C 96 % 1016.4 hPa 0.0 l/m 0.6 km/h (0 Bft) W-SW 0.02 h 61 W/m 18.2 C 18.9 C 2.4 km/h (1 Bft)
10.08.2009 20:00 18.5 C 95 % 1016.8 hPa 0.0 l/m 0.3 km/h (0 Bft) S-SW 0.00 h 15 W/m 17.7 C 18.5 C 1.6 km/h (1 Bft)
10.08.2009 21:00 18.2 C 96 % 1017.4 hPa 0.0 l/m 0.9 km/h (0 Bft) S 0.00 h 0 W/m 17.6 C 18.2 C 2.3 km/h (1 Bft)
10.08.2009 22:00 18.2 C 96 % 1017.9 hPa 0.0 l/m 1.5 km/h (1 Bft) S-SO 0.00 h 0 W/m 17.6 C 18.2 C 3.6 km/h (1 Bft)
10.08.2009 23:00 18.0 C 97 % 1018.1 hPa 0.0 l/m 0.4 km/h (0 Bft) S-SO 0.00 h 0 W/m 17.5 C 18.0 C 1.2 km/h (1 Bft)
11.08.2009 00:00 17.9 C 97 % 1018.4 hPa 0.0 l/m 1.6 km/h (1 Bft) S-SO 0.00 h 0 W/m 17.4 C 17.9 C 3.5 km/h (1 Bft)
11.08.2009 01:00 17.9 C 97 % 1018.7 hPa 0.0 l/m 2.4 km/h (1 Bft) S-SO 0.00 h 0 W/m 17.4 C 17.9 C 4.5 km/h (1 Bft)
11.08.2009 02:00 17.8 C 97 % 1018.5 hPa 0.0 l/m 1.6 km/h (1 Bft) S-SO 0.00 h 0 W/m 17.4 C 17.8 C 3.7 km/h (1 Bft)
11.08.2009 03:00 17.7 C 98 % 1018.6 hPa 0.0 l/m 2.5 km/h (1 Bft) S-SO 0.00 h 0 W/m 17.3 C 17.7 C 5.0 km/h (1 Bft)
11.08.2009 04:00 17.6 C 98 % 1018.7 hPa 0.0 l/m 1.1 km/h (0 Bft) S-SO 0.00 h 0 W/m 17.2 C 17.6 C 2.5 km/h (1 Bft)
11.08.2009 05:00 17.4 C 98 % 1018.7 hPa 0.0 l/m 1.7 km/h (1 Bft) S-SO 0.00 h 0 W/m 17.1 C 17.4 C 4.3 km/h (1 Bft)
11.08.2009 06:00 17.1 C 98 % 1019.0 hPa 0.0 l/m 2.3 km/h (1 Bft) S-SO 0.00 h 16 W/m 16.8 C 17.1 C 5.1 km/h (1 Bft)
11.08.2009 07:00 17.2 C 98 % 1019.4 hPa 0.0 l/m 1.2 km/h (1 Bft) S 0.00 h 54 W/m 16.9 C 17.2 C 2.7 km/h (1 Bft)
11.08.2009 08:00 18.3 C 98 % 1019.5 hPa 0.0 l/m 0.8 km/h (0 Bft) S 0.48 h 206 W/m 17.9 C 18.3 C 3.1 km/h (1 Bft)
11.08.2009 09:00 19.8 C 89 % 1019.4 hPa 0.0 l/m 2.0 km/h (1 Bft) W 0.55 h 305 W/m 18.0 C 19.8 C 5.0 km/h (1 Bft)
11.08.2009 10:00 20.2 C 77 % 1019.8 hPa 0.0 l/m 9.0 km/h (2 Bft) W-NW 1.00 h 598 W/m 16.0 C 20.2 C 14.6 km/h (3 Bft)
11.08.2009 11:00 22.1 C 70 % 1019.7 hPa 0.0 l/m 6.8 km/h (2 Bft) W 0.87 h 589 W/m 16.3 C 22.1 C 11.1 km/h (2 Bft)
11.08.2009 12:00 22.7 C 63 % 1019.6 hPa 0.0 l/m 10.7 km/h (2 Bft) W 0.82 h 667 W/m 15.1 C 22.7 C 16.9 km/h (3 Bft)
11.08.2009 13:00 23.9 C 60 % 1019.4 hPa 0.0 l/m 8.7 km/h (2 Bft) W 0.77 h 727 W/m 15.6 C 23.9 C 14.5 km/h (3 Bft)
11.08.2009 14:00 24.0 C 57 % 1019.3 hPa 0.0 l/m 12.0 km/h (2 Bft) W 0.70 h 622 W/m 14.8 C 24.0 C 18.9 km/h (3 Bft)
11.08.2009 15:00 23.3 C 59 % 1019.6 hPa 0.0 l/m 11.6 km/h (2 Bft) W-NW 0.28 h 386 W/m 14.8 C 23.3 C 18.1 km/h (3 Bft)
11.08.2009 16:00 23.6 C 61 % 1019.6 hPa 0.0 l/m 8.3 km/h (2 Bft) W-NW 0.23 h 337 W/m 15.6 C 23.6 C 13.1 km/h (3 Bft)
11.08.2009 17:00 23.1 C 64 % 1019.6 hPa 0.0 l/m 5.7 km/h (1 Bft) W-NW 0.27 h 296 W/m 15.9 C 23.1 C 9.1 km/h (2 Bft)
11.08.2009 18:00 23.6 C 63 % 1019.3 hPa 0.0 l/m 5.8 km/h (2 Bft) W-NW 0.28 h 192 W/m 16.1 C 23.6 C 9.6 km/h (2 Bft)
11.08.2009 19:00 23.3 C 64 % 1019.4 hPa 0.0 l/m 5.5 km/h (1 Bft) W-NW 0.25 h 102 W/m 16.1 C 23.3 C 8.8 km/h (2 Bft)
11.08.2009 20:00 22.5 C 66 % 1019.6 hPa 0.0 l/m 4.3 km/h (1 Bft) W-NW 0.13 h 24 W/m 15.9 C 22.5 C 7.5 km/h (2 Bft)
11.08.2009 21:00 21.0 C 71 % 1019.9 hPa 0.0 l/m 2.9 km/h (1 Bft) W-NW 0.00 h 0 W/m 15.5 C 21.0 C 5.2 km/h (1 Bft)
11.08.2009 22:00 19.9 C 77 % 1020.1 hPa 0.0 l/m 1.3 km/h (1 Bft) O-SO 0.00 h 0 W/m 15.7 C 19.9 C 2.4 km/h (1 Bft)
11.08.2009 23:00 18.5 C 84 % 1020.5 hPa 0.0 l/m 3.6 km/h (1 Bft) O-SO 0.00 h 0 W/m 15.8 C 18.5 C 5.1 km/h (1 Bft)
12.08.2009 00:00 17.8 C 87 % 1020.5 hPa 0.0 l/m 1.1 km/h (1 Bft) O-SO 0.00 h 0 W/m 15.7 C 17.8 C 2.3 km/h (1 Bft)
12.08.2009 01:00 17.4 C 89 % 1020.4 hPa 0.0 l/m 0.4 km/h (0 Bft) O-SO 0.00 h 0 W/m 15.6 C 17.4 C 1.1 km/h (0 Bft)
12.08.2009 02:00 17.2 C 91 % 1020.2 hPa 0.0 l/m 0.0 km/h (0 Bft) N 0.00 h 0 W/m 15.6 C 17.2 C 0.1 km/h (0 Bft)
12.08.2009 03:00 16.9 C 92 % 1020.1 hPa 0.0 l/m 0.1 km/h (0 Bft) O-SO 0.00 h 0 W/m 15.6 C 16.9 C 0.5 km/h (0 Bft)
12.08.2009 04:00 16.7 C 94 % 1020.0 hPa 0.0 l/m 0.1 km/h (0 Bft) O-SO 0.00 h 0 W/m 15.7 C 16.7 C 0.7 km/h (0 Bft)
12.08.2009 05:00 16.7 C 95 % 1020.2 hPa 0.0 l/m 0.0 km/h (0 Bft) O-SO 0.00 h 0 W/m 15.8 C 16.7 C 0.3 km/h (0 Bft)
12.08.2009 06:00 16.5 C 95 % 1020.4 hPa 0.0 l/m 0.1 km/h (0 Bft) O-SO 0.00 h 16 W/m 15.7 C 16.5 C 0.3 km/h (0 Bft)
12.08.2009 07:00 16.6 C 96 % 1020.7 hPa 0.0 l/m 0.0 km/h (0 Bft) O-SO 0.00 h 57 W/m 15.9 C 16.6 C 0.2 km/h (0 Bft)
12.08.2009 08:00 17.6 C 96 % 1020.9 hPa 0.0 l/m 0.3 km/h (0 Bft) O-SO 0.07 h 158 W/m 16.9 C 17.6 C 1.4 km/h (1 Bft)
12.08.2009 09:00 19.8 C 84 % 1020.9 hPa 0.0 l/m 0.7 km/h (0 Bft) N-NO 0.68 h 352 W/m 17.1 C 19.8 C 2.2 km/h (1 Bft)
12.08.2009 10:00 22.0 C 75 % 1020.7 hPa 0.0 l/m 0.9 km/h (0 Bft) N 0.70 h 501 W/m 17.3 C 22.0 C 2.5 km/h (1 Bft)
12.08.2009 11:00 23.7 C 67 % 1020.5 hPa 0.0 l/m 2.2 km/h (1 Bft) NW 1.00 h 715 W/m 17.3 C 23.7 C 4.6 km/h (1 Bft)
12.08.2009 12:00 24.6 C 60 % 1019.8 hPa 0.0 l/m 3.2 km/h (1 Bft) W 0.97 h 752 W/m 16.3 C 24.6 C 6.4 km/h (2 Bft)
12.08.2009 13:00 25.4 C 53 % 1019.4 hPa 0.0 l/m 5.9 km/h (2 Bft) W 1.00 h 796 W/m 14.9 C 25.4 C 9.7 km/h (2 Bft)
12.08.2009 14:00 26.1 C 51 % 1019.0 hPa 0.0 l/m 6.7 km/h (2 Bft) W 1.00 h 767 W/m 15.1 C 26.1 C 11.3 km/h (2 Bft)
12.08.2009 15:00 26.5 C 50 % 1018.6 hPa 0.0 l/m 7.3 km/h (2 Bft) W 1.00 h 696 W/m 15.1 C 26.5 C 12.0 km/h (2 Bft)
12.08.2009 16:00 26.9 C 47 % 1018.2 hPa 0.0 l/m 7.4 km/h (2 Bft) W 1.00 h 586 W/m 14.6 C 26.9 C 12.1 km/h (2 Bft)
12.08.2009 17:00 27.0 C 46 % 1017.7 hPa 0.0 l/m 7.8 km/h (2 Bft) W 1.00 h 444 W/m 14.4 C 27.0 C 12.7 km/h (3 Bft)
12.08.2009 18:00 26.4 C 47 % 1017.2 hPa 0.0 l/m 6.6 km/h (2 Bft) W 1.00 h 284 W/m 14.0 C 26.4 C 10.7 km/h (2 Bft)
12.08.2009 19:00 25.5 C 51 % 1017.0 hPa 0.0 l/m 5.9 km/h (2 Bft) W 0.90 h 127 W/m 14.5 C 25.5 C 9.6 km/h (2 Bft)
12.08.2009 20:00 23.8 C 56 % 1017.2 hPa 0.0 l/m 1.2 km/h (1 Bft) W-NW 0.07 h 17 W/m 14.4 C 23.8 C 2.6 km/h (1 Bft)
12.08.2009 21:00 21.2 C 68 % 1017.5 hPa 0.0 l/m 2.8 km/h (1 Bft) O-SO 0.00 h 0 W/m 15.1 C 21.2 C 3.7 km/h (1 Bft)
12.08.2009 22:00 19.2 C 78 % 1018.0 hPa 0.0 l/m 2.2 km/h (1 Bft) O-SO 0.00 h 0 W/m 15.2 C 19.2 C 3.4 km/h (1 Bft)
12.08.2009 23:00 18.0 C 82 % 1018.0 hPa 0.0 l/m 2.6 km/h (1 Bft) O-SO 0.00 h 0 W/m 14.8 C 18.0 C 4.1 km/h (1 Bft)
13.08.2009 00:00 17.4 C 84 % 1018.0 hPa 0.0 l/m 0.6 km/h (0 Bft) O-NO 0.00 h 0 W/m 14.7 C 17.4 C 1.6 km/h (1 Bft)
13.08.2009 01:00 16.6 C 88 % 1017.9 hPa 0.0 l/m 1.0 km/h (0 Bft) O-SO 0.00 h 0 W/m 14.6 C 16.6 C 2.1 km/h (1 Bft)
13.08.2009 02:00 16.2 C 90 % 1017.6 hPa 0.0 l/m 1.1 km/h (1 Bft) O-SO 0.00 h 0 W/m 14.4 C 16.2 C 2.4 km/h (1 Bft)
13.08.2009 03:00 15.7 C 91 % 1017.4 hPa 0.0 l/m 0.9 km/h (0 Bft) O-SO 0.00 h 0 W/m 14.3 C 15.7 C 2.0 km/h (1 Bft)
13.08.2009 04:00 15.4 C 93 % 1017.2 hPa 0.0 l/m 0.2 km/h (0 Bft) O-SO 0.00 h 0 W/m 14.2 C 15.4 C 0.9 km/h (0 Bft)
13.08.2009 05:00 15.0 C 93 % 1017.0 hPa 0.0 l/m 0.4 km/h (0 Bft) O-SO 0.00 h 0 W/m 13.9 C 15.0 C 1.0 km/h (0 Bft)
13.08.2009 06:00 14.8 C 95 % 1016.9 hPa 0.0 l/m 0.2 km/h (0 Bft) O-SO 0.00 h 13 W/m 14.0 C 14.8 C 0.7 km/h (0 Bft)
13.08.2009 07:00 15.0 C 97 % 1017.1 hPa 0.0 l/m 1.7 km/h (1 Bft) O-SO 0.20 h 64 W/m 14.4 C 15.0 C 3.0 km/h (1 Bft)
13.08.2009 08:00 17.5 C 94 % 1017.2 hPa 0.0 l/m 2.0 km/h (1 Bft) SO 1.00 h 245 W/m 16.4 C 17.5 C 4.2 km/h (1 Bft)
13.08.2009 09:00 20.9 C 78 % 1017.0 hPa 0.0 l/m 1.1 km/h (1 Bft) S-SW 1.00 h 406 W/m 16.9 C 20.9 C 3.5 km/h (1 Bft)
13.08.2009 10:00 23.1 C 69 % 1016.6 hPa 0.0 l/m 3.4 km/h (1 Bft) W-SW 0.95 h 553 W/m 17.2 C 23.1 C 6.4 km/h (2 Bft)
13.08.2009 11:00 23.5 C 66 % 1016.3 hPa 0.0 l/m 5.4 km/h (1 Bft) W 0.45 h 480 W/m 16.7 C 23.5 C 9.2 km/h (2 Bft)
13.08.2009 12:00 25.6 C 57 % 1015.8 hPa 0.0 l/m 9.9 km/h (2 Bft) W 1.00 h 892 W/m 16.3 C 25.6 C 16.1 km/h (3 Bft)
13.08.2009 13:00 25.2 C 57 % 1015.5 hPa 0.0 l/m 9.8 km/h (2 Bft) W 0.55 h 461 W/m 16.1 C 25.2 C 15.4 km/h (3 Bft)
13.08.2009 14:00 24.8 C 61 % 1015.2 hPa 0.0 l/m 6.5 km/h (2 Bft) W 0.15 h 358 W/m 16.6 C 24.8 C 10.4 km/h (2 Bft)
13.08.2009 15:00 25.1 C 57 % 1015.0 hPa 0.0 l/m 9.4 km/h (2 Bft) W 0.03 h 329 W/m 16.1 C 25.1 C 14.8 km/h (3 Bft)
13.08.2009 16:00 26.2 C 52 % 1014.8 hPa 0.0 l/m 11.1 km/h (2 Bft) W 0.83 h 501 W/m 15.5 C 26.2 C 17.7 km/h (3 Bft)
13.08.2009 17:00 26.8 C 49 % 1014.2 hPa 0.0 l/m 10.1 km/h (2 Bft) W 1.00 h 457 W/m 15.1 C 26.8 C 16.8 km/h (3 Bft)
13.08.2009 18:00 26.5 C 49 % 1013.9 hPa 0.0 l/m 9.4 km/h (2 Bft) W-NW 0.87 h 254 W/m 14.9 C 26.5 C 14.5 km/h (3 Bft)
13.08.2009 19:00 26.1 C 52 % 1013.7 hPa 0.0 l/m 10.3 km/h (2 Bft) W-NW 0.62 h 108 W/m 15.4 C 26.1 C 16.9 km/h (3 Bft)
13.08.2009 20:00 24.4 C 58 % 1013.6 hPa 0.0 l/m 5.6 km/h (1 Bft) W 0.02 h 16 W/m 15.6 C 24.4 C 8.9 km/h (2 Bft)
13.08.2009 21:00 22.4 C 67 % 1014.2 hPa 0.0 l/m 0.4 km/h (0 Bft) W 0.00 h 0 W/m 15.9 C 22.4 C 1.4 km/h (1 Bft)
13.08.2009 22:00 20.8 C 74 % 1014.6 hPa 0.0 l/m 2.8 km/h (1 Bft) O-SO 0.00 h 0 W/m 16.0 C 20.8 C 4.5 km/h (1 Bft)
13.08.2009 23:00 20.3 C 76 % 1014.8 hPa 0.0 l/m 1.8 km/h (1 Bft) O 0.00 h 0 W/m 16.0 C 20.3 C 3.2 km/h (1 Bft)
14.08.2009 00:00 20.2 C 77 % 1015.4 hPa 0.0 l/m 2.2 km/h (1 Bft) O-SO 0.00 h 0 W/m 15.9 C 20.2 C 4.1 km/h (1 Bft)
14.08.2009 01:00 19.7 C 79 % 1015.6 hPa 0.0 l/m 1.6 km/h (1 Bft) O-SO 0.00 h 0 W/m 15.9 C 19.7 C 3.3 km/h (1 Bft)
14.08.2009 02:00 18.7 C 80 % 1015.7 hPa 0.0 l/m 0.2 km/h (0 Bft) SO 0.00 h 0 W/m 15.2 C 18.7 C 1.2 km/h (1 Bft)
14.08.2009 03:00 18.3 C 82 % 1015.7 hPa 0.0 l/m 0.0 km/h (0 Bft) SO 0.00 h 0 W/m 15.2 C 18.3 C 0.7 km/h (0 Bft)
14.08.2009 04:00 17.8 C 85 % 1015.6 hPa 0.0 l/m 0.5 km/h (0 Bft) O-SO 0.00 h 0 W/m 15.2 C 17.8 C 1.5 km/h (1 Bft)
14.08.2009 05:00 17.0 C 88 % 1015.3 hPa 0.0 l/m 2.3 km/h (1 Bft) O-SO 0.00 h 0 W/m 14.9 C 17.0 C 3.6 km/h (1 Bft)
14.08.2009 06:00 16.2 C 90 % 1015.7 hPa 0.0 l/m 1.0 km/h (0 Bft) O-SO 0.02 h 15 W/m 14.6 C 16.2 C 2.1 km/h (1 Bft)
14.08.2009 07:00 16.1 C 92 % 1016.0 hPa 0.0 l/m 1.2 km/h (1 Bft) O-SO 0.18 h 61 W/m 14.9 C 16.1 C 2.3 km/h (1 Bft)
14.08.2009 08:00 18.4 C 89 % 1016.3 hPa 0.0 l/m 0.1 km/h (0 Bft) O-SO 0.83 h 222 W/m 16.4 C 18.4 C 0.6 km/h (0 Bft)
14.08.2009 09:00 20.9 C 76 % 1016.3 hPa 0.0 l/m 0.6 km/h (0 Bft) N-NW 0.97 h 396 W/m 16.6 C 20.9 C 1.8 km/h (1 Bft)
14.08.2009 10:00 22.5 C 71 % 1016.3 hPa 0.0 l/m 0.8 km/h (0 Bft) O 1.00 h 569 W/m 17.0 C 22.5 C 2.3 km/h (1 Bft)
14.08.2009 11:00 24.1 C 66 % 1016.1 hPa 0.0 l/m 2.9 km/h (1 Bft) W 0.83 h 657 W/m 17.4 C 24.1 C 5.6 km/h (1 Bft)
14.08.2009 12:00 25.0 C 59 % 1016.0 hPa 0.0 l/m 5.7 km/h (1 Bft) W-NW 0.80 h 716 W/m 16.5 C 25.0 C 9.6 km/h (2 Bft)
14.08.2009 13:00 25.2 C 58 % 1015.9 hPa 0.0 l/m 7.4 km/h (2 Bft) W 0.83 h 728 W/m 16.2 C 25.2 C 12.1 km/h (2 Bft)
14.08.2009 14:00 26.0 C 55 % 1015.7 hPa 0.0 l/m 8.4 km/h (2 Bft) W 0.95 h 833 W/m 16.2 C 26.0 C 12.9 km/h (3 Bft)
14.08.2009 15:00 25.7 C 56 % 1015.6 hPa 0.0 l/m 8.3 km/h (2 Bft) W 0.65 h 518 W/m 16.3 C 25.7 C 13.5 km/h (3 Bft)
14.08.2009 16:00 25.6 C 55 % 1015.7 hPa 0.0 l/m 7.9 km/h (2 Bft) W 0.62 h 446 W/m 15.9 C 25.6 C 13.1 km/h (3 Bft)
14.08.2009 17:00 26.6 C 53 % 1015.4 hPa 0.0 l/m 7.5 km/h (2 Bft) W 1.00 h 438 W/m 16.3 C 26.6 C 11.9 km/h (2 Bft)
14.08.2009 18:00 26.3 C 55 % 1015.6 hPa 0.0 l/m 6.2 km/h (2 Bft) W 1.00 h 295 W/m 16.5 C 26.3 C 10.3 km/h (2 Bft)
14.08.2009 19:00 25.7 C 59 % 1015.5 hPa 0.0 l/m 2.4 km/h (1 Bft) W-SW 0.93 h 117 W/m 17.0 C 25.7 C 5.0 km/h (1 Bft)
14.08.2009 20:00 24.2 C 61 % 1015.6 hPa 0.0 l/m 0.7 km/h (0 Bft) W-SW 0.03 h 19 W/m 16.3 C 24.2 C 2.1 km/h (1 Bft)
14.08.2009 21:00 22.3 C 68 % 1016.2 hPa 0.0 l/m 0.3 km/h (0 Bft) N-NO 0.00 h 0 W/m 16.1 C 22.3 C 1.2 km/h (1 Bft)
14.08.2009 22:00 21.1 C 75 % 1016.7 hPa 0.0 l/m 0.4 km/h (0 Bft) N-NO 0.00 h 0 W/m 16.4 C 21.1 C 1.7 km/h (1 Bft)
14.08.2009 23:00 20.2 C 79 % 1016.9 hPa 0.0 l/m 1.5 km/h (1 Bft) O 0.00 h 0 W/m 16.5 C 20.2 C 3.1 km/h (1 Bft)
15.08.2009 00:00 19.3 C 83 % 1017.3 hPa 0.0 l/m 0.3 km/h (0 Bft) O-SO 0.00 h 0 W/m 16.4 C 19.3 C 1.1 km/h (0 Bft)
15.08.2009 01:00 18.6 C 86 % 1017.3 hPa 0.0 l/m 1.0 km/h (0 Bft) O-SO 0.00 h 0 W/m 16.2 C 18.6 C 1.8 km/h (1 Bft)
15.08.2009 02:00 17.6 C 88 % 1017.2 hPa 0.0 l/m 1.8 km/h (1 Bft) O 0.00 h 0 W/m 15.6 C 17.6 C 3.2 km/h (1 Bft)
15.08.2009 03:00 16.7 C 90 % 1017.0 hPa 0.0 l/m 1.6 km/h (1 Bft) O 0.00 h 0 W/m 15.1 C 16.7 C 3.0 km/h (1 Bft)
15.08.2009 04:00 16.0 C 92 % 1016.9 hPa 0.0 l/m 1.0 km/h (0 Bft) O 0.00 h 0 W/m 14.8 C 16.0 C 2.1 km/h (1 Bft)
15.08.2009 05:00 15.5 C 93 % 1016.9 hPa 0.0 l/m 0.0 km/h (0 Bft) O 0.00 h 0 W/m 14.3 C 15.5 C 0.3 km/h (0 Bft)
15.08.2009 06:00 14.9 C 94 % 1017.2 hPa 0.0 l/m 0.3 km/h (0 Bft) O 0.03 h 14 W/m 14.0 C 14.9 C 1.1 km/h (1 Bft)
15.08.2009 07:00 14.9 C 96 % 1017.6 hPa 0.0 l/m 0.2 km/h (0 Bft) O 0.15 h 58 W/m 14.3 C 14.9 C 1.1 km/h (0 Bft)
15.08.2009 08:00 17.1 C 95 % 1017.8 hPa 0.0 l/m 0.0 km/h (0 Bft) N 1.00 h 239 W/m 16.3 C 17.1 C 0.0 km/h (0 Bft)
15.08.2009 09:00 19.9 C 81 % 1017.8 hPa 0.0 l/m 0.0 km/h (0 Bft) N 1.00 h 402 W/m 16.5 C 19.9 C 0.0 km/h (0 Bft)
15.08.2009 10:00 22.3 C 74 % 1017.5 hPa 0.0 l/m 0.0 km/h (0 Bft) N 1.00 h 552 W/m 17.4 C 22.3 C 0.0 km/h (0 Bft)
15.08.2009 11:00 24.2 C 68 % 1017.2 hPa 0.0 l/m 1.8 km/h (1 Bft) SO 1.00 h 673 W/m 18.0 C 24.2 C 4.0 km/h (1 Bft)
15.08.2009 12:00 25.8 C 64 % 1016.9 hPa 0.0 l/m 2.2 km/h (1 Bft) W 1.00 h 755 W/m 18.5 C 25.8 C 4.9 km/h (1 Bft)
15.08.2009 13:00 27.4 C 58 % 1016.5 hPa 0.0 l/m 2.1 km/h (1 Bft) W-NW 1.00 h 785 W/m 18.4 C 27.4 C 4.7 km/h (1 Bft)
15.08.2009 14:00 28.5 C 54 % 1016.2 hPa 0.0 l/m 2.4 km/h (1 Bft) NW 1.00 h 760 W/m 18.2 C 28.5 C 4.9 km/h (1 Bft)
15.08.2009 15:00 29.4 C 47 % 1016.0 hPa 0.0 l/m 7.1 km/h (2 Bft) W 1.00 h 689 W/m 16.7 C 29.4 C 11.5 km/h (2 Bft)
15.08.2009 16:00 30.0 C 46 % 1015.6 hPa 0.0 l/m 5.7 km/h (1 Bft) W 1.00 h 570 W/m 16.9 C 30.0 C 9.2 km/h (2 Bft)
15.08.2009 17:00 30.0 C 48 % 1015.4 hPa 0.0 l/m 4.3 km/h (1 Bft) W 1.00 h 421 W/m 17.8 C 30.0 C 7.0 km/h (2 Bft)
15.08.2009 18:00 29.4 C 51 % 1015.1 hPa 0.0 l/m 3.5 km/h (1 Bft) W 1.00 h 260 W/m 18.1 C 29.4 C 6.0 km/h (2 Bft)
15.08.2009 19:00 28.3 C 58 % 1015.0 hPa 0.0 l/m 0.7 km/h (0 Bft) W 0.82 h 109 W/m 19.2 C 28.3 C 2.1 km/h (1 Bft)
15.08.2009 20:00 26.3 C 67 % 1015.1 hPa 0.0 l/m 2.7 km/h (1 Bft) O-SO 0.07 h 17 W/m 19.5 C 26.3 C 3.6 km/h (1 Bft)
15.08.2009 21:00 23.5 C 76 % 1015.7 hPa 0.0 l/m 3.2 km/h (1 Bft) O-SO 0.00 h 0 W/m 19.0 C 23.5 C 4.9 km/h (1 Bft)
15.08.2009 22:00 22.1 C 80 % 1016.1 hPa 0.0 l/m 0.2 km/h (0 Bft) O-SO 0.00 h 0 W/m 18.5 C 22.1 C 0.9 km/h (0 Bft)
15.08.2009 23:00 20.8 C 85 % 1016.5 hPa 0.0 l/m 1.1 km/h (1 Bft) O-SO 0.00 h 0 W/m 18.1 C 20.8 C 2.2 km/h (1 Bft)
16.08.2009 00:00 19.8 C 88 % 1016.6 hPa 0.0 l/m 0.8 km/h (0 Bft) O-SO 0.00 h 0 W/m 17.7 C 19.8 C 1.8 km/h (1 Bft)
16.08.2009 01:00 19.0 C 90 % 1016.6 hPa 0.0 l/m 0.8 km/h (0 Bft) O-SO 0.00 h 0 W/m 17.3 C 19.0 C 1.7 km/h (1 Bft)
16.08.2009 02:00 18.3 C 92 % 1016.5 hPa 0.0 l/m 0.4 km/h (0 Bft) O-SO 0.00 h 0 W/m 16.9 C 18.3 C 0.9 km/h (0 Bft)
16.08.2009 03:00 17.7 C 93 % 1016.5 hPa 0.0 l/m 0.3 km/h (0 Bft) O-SO 0.00 h 0 W/m 16.6 C 17.7 C 0.7 km/h (0 Bft)
16.08.2009 04:00 17.2 C 95 % 1016.5 hPa 0.0 l/m 0.1 km/h (0 Bft) O-SO 0.00 h 0 W/m 16.4 C 17.2 C 0.5 km/h (0 Bft)
16.08.2009 05:00 16.7 C 95 % 1016.6 hPa 0.0 l/m 0.3 km/h (0 Bft) O-SO 0.00 h 0 W/m 16.0 C 16.7 C 1.0 km/h (0 Bft)
16.08.2009 06:00 16.4 C 96 % 1016.8 hPa 0.0 l/m 0.1 km/h (0 Bft) O-SO 0.02 h 14 W/m 15.8 C 16.4 C 0.6 km/h (0 Bft)
16.08.2009 07:00 16.7 C 97 % 1017.2 hPa 0.0 l/m 0.0 km/h (0 Bft) N 0.00 h 45 W/m 16.3 C 16.7 C 0.3 km/h (0 Bft)
16.08.2009 08:00 17.8 C 98 % 1017.6 hPa 0.0 l/m 0.3 km/h (0 Bft) O-SO 0.32 h 167 W/m 17.5 C 17.8 C 1.2 km/h (1 Bft)
16.08.2009 09:00 20.5 C 87 % 1017.4 hPa 0.0 l/m 1.4 km/h (1 Bft) O-SO 1.00 h 392 W/m 18.3 C 20.5 C 2.9 km/h (1 Bft)
16.08.2009 10:00 24.0 C 70 % 1017.2 hPa 0.0 l/m 1.2 km/h (1 Bft) SW 1.00 h 549 W/m 18.1 C 24.0 C 3.6 km/h (1 Bft)
16.08.2009 11:00 26.1 C 59 % 1016.9 hPa 0.0 l/m 3.1 km/h (1 Bft) S-SO 1.00 h 672 W/m 17.5 C 26.1 C 6.3 km/h (2 Bft)
16.08.2009 12:00 28.3 C 54 % 1016.4 hPa 0.0 l/m 1.4 km/h (1 Bft) S-SW 1.00 h 729 W/m 17.9 C 28.3 C 4.1 km/h (1 Bft)
16.08.2009 13:00 29.4 C 49 % 1015.9 hPa 0.0 l/m 3.0 km/h (1 Bft) W-SW 1.00 h 749 W/m 17.4 C 29.4 C 5.7 km/h (1 Bft)
16.08.2009 14:00 30.2 C 46 % 1015.4 hPa 0.0 l/m 3.2 km/h (1 Bft) W-NW 1.00 h 669 W/m 17.3 C 30.2 C 5.6 km/h (1 Bft)
16.08.2009 15:00 30.6 C 45 % 1015.3 hPa 0.0 l/m 3.6 km/h (1 Bft) W-NW 0.98 h 570 W/m 17.5 C 30.6 C 5.8 km/h (2 Bft)
16.08.2009 16:00 30.9 C 42 % 1014.9 hPa 0.0 l/m 3.7 km/h (1 Bft) W-NW 0.88 h 520 W/m 16.6 C 30.9 C 6.1 km/h (2 Bft)
16.08.2009 17:00 31.3 C 40 % 1014.7 hPa 0.0 l/m 2.5 km/h (1 Bft) W 1.00 h 464 W/m 16.2 C 31.3 C 4.7 km/h (1 Bft)
16.08.2009 18:00 31.0 C 40 % 1014.4 hPa 0.0 l/m 3.2 km/h (1 Bft) W-SW 1.00 h 269 W/m 15.9 C 31.0 C 5.6 km/h (1 Bft)
16.08.2009 19:00 29.7 C 47 % 1014.3 hPa 0.0 l/m 1.1 km/h (0 Bft) NW 0.63 h 110 W/m 17.1 C 29.7 C 2.5 km/h (1 Bft)
16.08.2009 20:00 26.8 C 60 % 1014.5 hPa 0.0 l/m 3.9 km/h (1 Bft) O-SO 0.02 h 17 W/m 18.3 C 26.8 C 5.5 km/h (1 Bft)
16.08.2009 21:00 23.1 C 70 % 1015.2 hPa 0.0 l/m 4.3 km/h (1 Bft) O-SO 0.00 h 0 W/m 17.4 C 23.1 C 5.7 km/h (1 Bft)
16.08.2009 22:00 21.4 C 73 % 1015.4 hPa 0.0 l/m 2.5 km/h (1 Bft) O-SO 0.00 h 0 W/m 16.4 C 21.4 C 3.9 km/h (1 Bft)
16.08.2009 23:00 20.1 C 77 % 1015.5 hPa 0.0 l/m 1.0 km/h (0 Bft) O 0.00 h 0 W/m 16.0 C 20.1 C 2.2 km/h (1 Bft)
Min-Datum _ 13.08.09 16.08.09 13.08.09 - 10.08.09 - - - 12.08.09 13.08.09 10.08.09
_ Min-Zeit 07:00 18:04 20:30 - 00:00 - - - 13:37 06:46 00:06
Minimum _ 14.6 C 33 % 1013.5 hPa - 0.0 km/h (0 Bft) - - - 12.9 C 14.7 C 0.0 km/h (0 Bft)
Max-Datum _ 16.08.09 10.08.09 12.08.09 10.08.09 10.08.09 - 10.08.09 11.08.09 10.08.09 16.08.09 11.08.09
_ Max-Zeit 17:17 22:24 08:15 15:55 15:57 - 11:29 13:20 14:40 17:17 15:00
Maximum _ 31.8 C 100 % 1021.0 hPa 2.8 l/m 24.3 km/h
W (4 Bft)
- 0.02 h 1062 W/m 21.4 C 31.9 C 34.8 km/h
W (5 Bft)
Durchschnitt _ 21.4 C 76 % 1016.9 hPa #12.0 l/m 2.8 km/h (1 Bft) W #60:23 h 353 W/m 16.5 C 21.4 C 5.0 km/h (1 Bft)
© Kaiko 2009